createdAt,value
2017-08-12T00:00:25.238Z,21.64
2017-08-12T00:01:34.853Z,21.65
2017-08-12T00:02:44.774Z,21.67
2017-08-12T00:03:55.005Z,21.62
2017-08-12T00:05:04.330Z,21.69
2017-08-12T00:06:14.305Z,21.65
2017-08-12T00:07:24.633Z,21.61
2017-08-12T00:08:34.648Z,21.49
2017-08-12T00:09:44.303Z,21.5
2017-08-12T00:10:54.289Z,21.54
2017-08-12T00:12:04.392Z,21.56
2017-08-12T00:13:14.494Z,21.52
2017-08-12T00:14:24.771Z,21.53
2017-08-12T00:15:34.744Z,21.59
2017-08-12T00:16:44.985Z,21.53
2017-08-12T00:17:54.947Z,21.54
2017-08-12T00:19:04.990Z,21.53
2017-08-12T00:20:15.057Z,21.52
2017-08-12T00:21:24.711Z,21.53
2017-08-12T00:22:34.684Z,21.64
2017-08-12T00:23:44.629Z,21.61
2017-08-12T00:24:55.000Z,21.65
2017-08-12T00:26:05.028Z,21.67
2017-08-12T00:27:15.377Z,21.77
2017-08-12T00:28:25.628Z,21.77
2017-08-12T00:29:35.286Z,21.84
2017-08-12T00:30:45.343Z,21.84
2017-08-12T00:31:55.632Z,21.79
2017-08-12T00:33:05.596Z,21.74
2017-08-12T00:34:15.879Z,21.72
2017-08-12T00:35:25.510Z,21.62
2017-08-12T00:36:35.125Z,21.59
2017-08-12T00:37:45.040Z,21.54
2017-08-12T00:38:55.284Z,21.56
2017-08-12T00:40:05.206Z,21.61
2017-08-12T00:41:14.841Z,21.54
2017-08-12T00:42:24.164Z,21.47
2017-08-12T00:43:34.092Z,21.43
2017-08-12T00:44:44.326Z,21.4
2017-08-12T00:45:53.940Z,21.43
2017-08-12T00:47:03.239Z,21.43
2017-08-12T00:48:13.163Z,21.43
2017-08-12T00:49:22.781Z,21.34
2017-08-12T00:50:32.398Z,21.43
2017-08-12T00:51:42.308Z,21.37
2017-08-12T00:52:52.234Z,21.34
2017-08-12T00:54:02.464Z,21.38
2017-08-12T00:55:12.388Z,21.32
2017-08-12T00:56:22.314Z,21.37
2017-08-12T00:57:31.924Z,21.32
2017-08-12T00:58:42.160Z,21.21
2017-08-12T00:59:52.381Z,21.25
2017-08-12T01:01:02.014Z,21.14
2017-08-12T01:02:11.330Z,21.14
2017-08-12T01:03:21.259Z,21.17
2017-08-12T01:04:31.506Z,21.13
2017-08-12T01:05:41.808Z,21.14
2017-08-12T01:06:51.439Z,21.07
2017-08-12T01:08:01.370Z,21.01
2017-08-12T01:09:11.599Z,21.06
2017-08-12T01:10:21.827Z,21.09
2017-08-12T01:11:31.448Z,21.1
2017-08-12T01:12:41.076Z,21.09
2017-08-12T01:13:50.958Z,21.01
2017-08-12T01:15:00.583Z,20.99
2017-08-12T01:16:10.820Z,20.99
2017-08-12T01:17:21.066Z,21.06
2017-08-12T01:18:30.683Z,21.09
2017-08-12T01:19:40.903Z,21.12
2017-08-12T01:20:50.513Z,21.13
2017-08-12T01:22:00.768Z,21.24
2017-08-12T01:23:10.704Z,21.29
2017-08-12T01:24:20.634Z,21.28
2017-08-12T01:25:30.929Z,21.37
2017-08-12T01:26:40.851Z,21.38
2017-08-12T01:27:51.123Z,21.34
2017-08-12T01:29:01.047Z,21.4
2017-08-12T01:30:10.363Z,21.44
2017-08-12T01:31:20.282Z,21.47
2017-08-12T01:32:30.205Z,21.53
2017-08-12T01:33:40.130Z,21.54
2017-08-12T01:34:50.058Z,21.54
2017-08-12T01:35:59.997Z,21.61
2017-08-12T01:37:09.609Z,21.67
2017-08-12T01:38:19.534Z,21.61
2017-08-12T01:39:28.540Z,21.61
2017-08-12T01:40:38.465Z,21.56
2017-08-12T01:41:48.400Z,21.59
2017-08-12T01:42:58.323Z,21.68
2017-08-12T01:44:07.945Z,21.59
2017-08-12T01:45:17.883Z,21.61
2017-08-12T01:46:28.107Z,21.59
2017-08-12T01:47:38.041Z,21.65
2017-08-12T01:48:47.980Z,21.54
2017-08-12T01:49:57.285Z,21.54
2017-08-12T01:51:07.208Z,21.54
2017-08-12T01:52:17.443Z,21.56
2017-08-12T01:53:26.748Z,21.58
2017-08-12T01:54:36.996Z,21.56
2017-08-12T01:55:47.246Z,21.69
2017-08-12T01:56:57.175Z,21.61
2017-08-12T01:58:07.399Z,21.58
2017-08-12T01:59:17.320Z,21.56
2017-08-12T02:00:27.544Z,21.54
2017-08-12T02:01:37.162Z,21.62
2017-08-12T02:02:47.394Z,21.58
2017-08-12T02:03:57.622Z,21.54
2017-08-12T02:05:07.266Z,21.54
2017-08-12T02:06:16.872Z,21.65
2017-08-12T02:07:26.482Z,21.64
2017-08-12T02:08:36.087Z,21.59
2017-08-12T02:09:46.325Z,21.67
2017-08-12T02:10:56.553Z,21.68
2017-08-12T02:12:06.478Z,21.61
2017-08-12T02:13:16.710Z,21.62
2017-08-12T02:14:26.641Z,21.58
2017-08-12T02:15:35.945Z,21.61
2017-08-12T02:16:45.891Z,21.54
2017-08-12T02:17:55.826Z,21.54
2017-08-12T02:19:05.440Z,21.54
2017-08-12T02:20:15.666Z,21.43
2017-08-12T02:21:24.985Z,21.4
2017-08-12T02:22:35.215Z,21.4
2017-08-12T02:23:45.462Z,21.37
2017-08-12T02:24:55.393Z,21.37
2017-08-12T02:26:05.321Z,21.42
2017-08-12T02:27:14.628Z,21.37
2017-08-12T02:28:24.564Z,21.34
2017-08-12T02:29:34.182Z,21.32
2017-08-12T02:30:43.485Z,21.37
2017-08-12T02:31:53.433Z,21.4
2017-08-12T02:33:03.670Z,21.37
2017-08-12T02:34:13.920Z,21.42
2017-08-12T02:35:23.572Z,21.43
2017-08-12T02:36:33.814Z,21.4
2017-08-12T02:37:43.753Z,21.37
2017-08-12T02:38:53.078Z,21.46
2017-08-12T02:40:03.000Z,21.44
2017-08-12T02:41:13.252Z,21.4
2017-08-12T02:42:23.206Z,21.42
2017-08-12T02:43:33.436Z,21.4
2017-08-12T02:44:43.067Z,21.46
2017-08-12T02:45:53.305Z,21.42
2017-08-12T02:47:02.956Z,21.37
2017-08-12T02:48:12.576Z,21.35
2017-08-12T02:49:22.810Z,21.46
2017-08-12T02:50:33.072Z,21.44
2017-08-12T02:51:42.996Z,21.44
2017-08-12T02:52:52.619Z,21.43
2017-08-12T02:54:02.557Z,21.43
2017-08-12T02:55:12.483Z,21.4
2017-08-12T02:56:22.104Z,21.43
2017-08-12T02:57:31.417Z,21.49
2017-08-12T02:58:41.335Z,21.44
2017-08-12T02:59:51.566Z,21.56
2017-08-12T03:01:01.480Z,21.53
2017-08-12T03:02:11.395Z,21.62
2017-08-12T03:03:21.622Z,21.59
2017-08-12T03:04:31.879Z,21.61
2017-08-12T03:05:41.513Z,21.52
2017-08-12T03:06:50.844Z,21.56
2017-08-12T03:08:01.069Z,21.59
2017-08-12T03:09:10.681Z,21.53
2017-08-12T03:10:20.301Z,21.54
2017-08-12T03:11:29.937Z,21.56
2017-08-12T03:12:40.157Z,21.52
2017-08-12T03:13:50.398Z,21.5
2017-08-12T03:15:00.320Z,21.56
2017-08-12T03:16:10.237Z,21.54
2017-08-12T03:17:20.475Z,21.54
2017-08-12T03:18:30.396Z,21.62
2017-08-12T03:19:40.632Z,21.5
2017-08-12T03:20:50.557Z,21.56
2017-08-12T03:22:00.797Z,21.71
2017-08-12T03:23:10.735Z,21.61
2017-08-12T03:24:20.964Z,21.62
2017-08-12T03:25:30.901Z,21.5
2017-08-12T03:26:40.820Z,21.53
2017-08-12T03:27:51.088Z,21.53
2017-08-12T03:29:01.044Z,21.56
2017-08-12T03:30:11.125Z,21.62
2017-08-12T03:31:20.773Z,21.59
2017-08-12T03:32:30.390Z,21.65
2017-08-12T03:33:40.638Z,21.61
2017-08-12T03:34:50.251Z,21.64
2017-08-12T03:36:00.491Z,21.54
2017-08-12T03:37:10.417Z,21.65
2017-08-12T03:38:20.357Z,21.64
2017-08-12T03:39:29.664Z,21.64
2017-08-12T03:40:39.588Z,21.69
2017-08-12T03:41:49.815Z,21.72
2017-08-12T03:42:59.445Z,21.72
2017-08-12T03:44:09.673Z,21.74
2017-08-12T03:45:19.898Z,21.77
2017-08-12T03:46:29.846Z,21.75
2017-08-12T03:47:39.469Z,21.8
2017-08-12T03:48:49.422Z,21.74
2017-08-12T03:49:59.646Z,21.82
2017-08-12T03:51:09.591Z,21.79
2017-08-12T03:52:19.517Z,21.83
2017-08-12T03:53:29.128Z,21.77
2017-08-12T03:54:39.048Z,21.74
2017-08-12T03:55:48.663Z,21.74
2017-08-12T03:56:58.585Z,21.74
2017-08-12T03:58:08.204Z,21.9
2017-08-12T03:59:18.142Z,21.84
2017-08-12T04:00:28.368Z,21.74
2017-08-12T04:01:38.610Z,21.8
2017-08-12T04:02:48.229Z,21.88
2017-08-12T04:03:58.476Z,21.88
2017-08-12T04:05:08.715Z,21.9
2017-08-12T04:06:18.645Z,21.77
2017-08-12T04:07:28.905Z,21.91
2017-08-12T04:08:38.841Z,21.9
2017-08-12T04:09:48.143Z,21.9
2017-08-12T04:10:58.376Z,21.91
2017-08-12T04:12:08.614Z,21.84
2017-08-12T04:13:18.545Z,21.79
2017-08-12T04:14:28.778Z,21.82
2017-08-12T04:15:38.424Z,21.91
2017-08-12T04:16:48.694Z,21.86
2017-08-12T04:17:58.322Z,21.84
2017-08-12T04:19:07.945Z,21.86
2017-08-12T04:20:18.189Z,21.82
2017-08-12T04:21:28.124Z,21.74
2017-08-12T04:22:38.055Z,21.91
2017-08-12T04:23:47.664Z,21.91
2017-08-12T04:24:57.582Z,21.82
2017-08-12T04:26:07.811Z,21.9
2017-08-12T04:27:18.054Z,21.86
2017-08-12T04:28:27.675Z,21.86
2017-08-12T04:29:36.676Z,21.9
2017-08-12T04:30:46.908Z,21.9
2017-08-12T04:31:56.534Z,21.9
2017-08-12T04:33:06.189Z,21.88
2017-08-12T04:34:16.447Z,21.91
2017-08-12T04:35:26.699Z,21.94
2017-08-12T04:36:36.334Z,21.92
2017-08-12T04:37:45.976Z,21.92
2017-08-12T04:38:55.289Z,21.92
2017-08-12T04:40:05.222Z,21.9
2017-08-12T04:41:15.448Z,21.79
2017-08-12T04:42:25.680Z,21.82
2017-08-12T04:43:35.618Z,21.79
2017-08-12T04:44:45.540Z,21.74
2017-08-12T04:45:55.463Z,21.82
2017-08-12T04:47:05.711Z,21.86
2017-08-12T04:48:15.658Z,21.79
2017-08-12T04:49:25.579Z,21.8
2017-08-12T04:50:35.506Z,21.77
2017-08-12T04:51:45.428Z,21.83
2017-08-12T04:52:55.663Z,21.8
2017-08-12T04:54:05.581Z,21.83
2017-08-12T04:55:15.506Z,21.79
2017-08-12T04:56:25.730Z,21.82
2017-08-12T04:57:35.985Z,21.82
2017-08-12T04:58:45.608Z,21.82
2017-08-12T04:59:55.840Z,21.72
2017-08-12T05:01:06.079Z,21.74
2017-08-12T05:02:16.317Z,21.75
2017-08-12T05:03:26.245Z,21.75
2017-08-12T05:04:36.477Z,21.75
2017-08-12T05:05:46.708Z,21.8
2017-08-12T05:06:56.635Z,21.72
2017-08-12T05:08:06.557Z,21.72
2017-08-12T05:09:16.791Z,21.8
2017-08-12T05:10:27.021Z,21.82
2017-08-12T05:11:37.251Z,21.74
2017-08-12T05:12:46.870Z,21.86
2017-08-12T05:13:56.836Z,21.84
2017-08-12T05:15:07.071Z,21.84
2017-08-12T05:16:16.683Z,21.84
2017-08-12T05:17:26.292Z,21.79
2017-08-12T05:18:36.229Z,21.74
2017-08-12T05:19:45.844Z,21.75
2017-08-12T05:20:56.075Z,21.8
2017-08-12T05:22:06.306Z,21.79
2017-08-12T05:23:16.524Z,21.8
2017-08-12T05:24:26.761Z,21.75
2017-08-12T05:25:37.009Z,21.74
2017-08-12T05:26:46.923Z,21.9
2017-08-12T05:27:55.608Z,21.9
2017-08-12T05:29:05.548Z,21.92
2017-08-12T05:30:15.467Z,21.8
2017-08-12T05:31:25.386Z,21.92
2017-08-12T05:32:35.723Z,21.92
2017-08-12T05:33:45.345Z,21.94
2017-08-12T05:34:55.584Z,21.88
2017-08-12T05:36:05.504Z,21.98
2017-08-12T05:37:15.451Z,21.88
2017-08-12T05:38:25.372Z,21.86
2017-08-12T05:39:35.599Z,21.9
2017-08-12T05:40:45.523Z,21.94
2017-08-12T05:41:55.449Z,21.94
2017-08-12T05:43:05.078Z,21.96
2017-08-12T05:44:15.008Z,21.91
2017-08-12T05:45:25.239Z,21.91
2017-08-12T05:46:35.474Z,21.91
2017-08-12T05:47:45.725Z,21.82
2017-08-12T05:48:55.353Z,21.91
2017-08-12T05:50:05.294Z,21.96
2017-08-12T05:51:14.914Z,21.98
2017-08-12T05:52:24.523Z,21.86
2017-08-12T05:53:34.455Z,21.91
2017-08-12T05:54:44.393Z,21.9
2017-08-12T05:55:54.305Z,21.92
2017-08-12T05:57:03.632Z,21.82
2017-08-12T05:58:13.550Z,21.83
2017-08-12T05:59:23.805Z,21.86
2017-08-12T06:00:33.122Z,21.77
2017-08-12T06:01:43.067Z,21.82
2017-08-12T06:02:52.981Z,21.84
2017-08-12T06:04:02.913Z,21.83
2017-08-12T06:05:13.143Z,21.8
2017-08-12T06:06:23.061Z,21.71
2017-08-12T06:07:32.978Z,21.77
2017-08-12T06:08:42.604Z,21.71
2017-08-12T06:09:52.544Z,21.77
2017-08-12T06:11:02.462Z,21.8
2017-08-12T06:12:12.692Z,21.74
2017-08-12T06:13:22.633Z,21.74
2017-08-12T06:14:32.288Z,21.74
2017-08-12T06:15:42.224Z,21.77
2017-08-12T06:16:52.148Z,21.74
2017-08-12T06:18:02.075Z,21.74
2017-08-12T06:19:11.698Z,21.77
2017-08-12T06:20:21.631Z,21.82
2017-08-12T06:21:31.588Z,21.79
2017-08-12T06:22:41.521Z,21.82
2017-08-12T06:23:51.477Z,21.8
2017-08-12T06:25:01.725Z,21.75
2017-08-12T06:26:11.968Z,21.86
2017-08-12T06:27:21.892Z,21.9
2017-08-12T06:28:32.135Z,21.8
2017-08-12T06:29:41.770Z,21.82
2017-08-12T06:30:51.087Z,21.8
2017-08-12T06:32:01.365Z,21.86
2017-08-12T06:33:10.996Z,21.84
2017-08-12T06:34:20.312Z,21.86
2017-08-12T06:35:30.595Z,21.91
2017-08-12T06:36:40.865Z,21.92
2017-08-12T06:37:51.558Z,21.83
2017-08-12T06:39:02.341Z,21.86
2017-08-12T06:40:12.172Z,21.88
2017-08-12T06:41:23.064Z,21.86
2017-08-12T06:42:32.861Z,21.86
2017-08-12T06:43:43.171Z,21.83
2017-08-12T06:44:53.241Z,21.88
2017-08-12T06:46:04.338Z,21.84
2017-08-12T06:47:14.639Z,21.72
2017-08-12T06:48:24.452Z,21.77
2017-08-12T06:49:34.956Z,21.79
2017-08-12T06:50:45.373Z,21.68
2017-08-12T06:51:56.075Z,21.69
2017-08-12T06:53:06.440Z,21.74
2017-08-12T06:54:16.723Z,21.74
2017-08-12T06:55:27.054Z,21.74
2017-08-12T06:56:37.597Z,21.71
2017-08-12T06:57:48.168Z,21.74
2017-08-12T06:58:58.511Z,21.75
2017-08-12T07:00:08.202Z,21.72
2017-08-12T07:01:18.927Z,21.69
2017-08-12T07:02:29.175Z,21.68
2017-08-12T07:03:38.786Z,21.74
2017-08-12T07:04:48.106Z,21.71
2017-08-12T07:05:58.351Z,21.68
2017-08-12T07:07:08.274Z,21.68
2017-08-12T07:08:18.201Z,21.79
2017-08-12T07:09:28.439Z,21.71
2017-08-12T07:10:38.675Z,21.8
2017-08-12T07:11:48.919Z,21.72
2017-08-12T07:12:59.166Z,21.69
2017-08-12T07:14:08.482Z,21.71
2017-08-12T07:15:18.114Z,21.68
2017-08-12T07:16:28.339Z,21.65
2017-08-12T07:17:37.955Z,21.67
2017-08-12T07:18:47.879Z,21.74
2017-08-12T07:19:58.100Z,21.68
2017-08-12T07:21:07.731Z,21.74
2017-08-12T07:22:17.966Z,21.72
2017-08-12T07:23:27.892Z,21.72
2017-08-12T07:24:38.166Z,21.75
2017-08-12T07:25:48.099Z,21.65
2017-08-12T07:26:57.714Z,21.67
2017-08-12T07:28:07.083Z,21.67
2017-08-12T07:29:17.320Z,21.64
2017-08-12T07:30:27.263Z,21.65
2017-08-12T07:31:36.903Z,21.68
2017-08-12T07:32:47.126Z,21.62
2017-08-12T07:33:56.733Z,21.64
2017-08-12T07:35:06.660Z,21.62
2017-08-12T07:36:16.583Z,21.65
2017-08-12T07:37:26.194Z,21.65
2017-08-12T07:38:35.519Z,21.67
2017-08-12T07:39:45.136Z,21.68
2017-08-12T07:40:55.064Z,21.71
2017-08-12T07:42:05.009Z,21.82
2017-08-12T07:43:14.622Z,21.74
2017-08-12T07:44:24.565Z,21.96
2017-08-12T07:45:34.179Z,21.84
2017-08-12T07:46:44.130Z,21.94
2017-08-12T07:47:54.358Z,22.02
2017-08-12T07:49:04.598Z,21.96
2017-08-12T07:50:14.529Z,22.07
2017-08-12T07:51:24.162Z,22.07
2017-08-12T07:52:33.464Z,22.17
2017-08-12T07:53:42.801Z,22.07
2017-08-12T07:54:52.731Z,22.21
2017-08-12T07:56:02.338Z,22.18
2017-08-12T07:57:12.574Z,22.22
2017-08-12T07:58:21.574Z,22.22
2017-08-12T07:59:31.494Z,22.27
2017-08-12T08:00:41.121Z,22.31
2017-08-12T08:01:51.036Z,22.36
2017-08-12T08:03:01.275Z,22.4
2017-08-12T08:04:11.222Z,22.42
2017-08-12T08:05:20.835Z,22.47
2017-08-12T08:06:30.770Z,22.39
2017-08-12T08:07:40.393Z,22.43
2017-08-12T08:08:50.631Z,22.52
2017-08-12T08:09:59.960Z,22.49
2017-08-12T08:11:09.587Z,22.52
2017-08-12T08:12:19.515Z,22.52
2017-08-12T08:13:29.435Z,22.65
2017-08-12T08:14:39.361Z,22.6
2017-08-12T08:15:49.281Z,22.67
2017-08-12T08:16:59.201Z,22.61
2017-08-12T08:18:09.123Z,22.67
2017-08-12T08:19:19.377Z,22.72
2017-08-12T08:20:29.609Z,22.67
2017-08-12T08:21:39.222Z,22.64
2017-08-12T08:22:48.859Z,22.73
2017-08-12T08:23:58.830Z,22.7
2017-08-12T08:25:08.783Z,22.75
2017-08-12T08:26:18.435Z,22.68
2017-08-12T08:27:28.399Z,22.76
2017-08-12T08:28:38.325Z,22.77
2017-08-12T08:29:48.587Z,22.85
2017-08-12T08:30:58.220Z,22.85
2017-08-12T08:32:08.168Z,22.92
2017-08-12T08:33:17.800Z,22.95
2017-08-12T08:34:27.737Z,22.94
2017-08-12T08:35:37.985Z,22.86
2017-08-12T08:36:48.227Z,22.98
2017-08-12T08:37:57.842Z,23.01
2017-08-12T08:39:07.790Z,23
2017-08-12T08:40:17.791Z,23.01
2017-08-12T08:41:27.759Z,23.07
2017-08-12T08:42:37.370Z,23.02
2017-08-12T08:43:47.616Z,23.05
2017-08-12T08:44:57.971Z,23.07
2017-08-12T08:46:07.308Z,23.09
2017-08-12T08:47:16.924Z,23.13
2017-08-12T08:48:27.164Z,23.1
2017-08-12T08:49:37.109Z,23.15
2017-08-12T08:50:46.730Z,23.13
2017-08-12T08:51:56.359Z,23.15
2017-08-12T08:53:06.334Z,23.28
2017-08-12T08:54:16.602Z,23.23
2017-08-12T08:55:26.859Z,23.19
2017-08-12T08:56:37.088Z,23.19
2017-08-12T08:57:47.034Z,23.23
2017-08-12T08:58:56.648Z,23.27
2017-08-12T09:00:06.584Z,23.23
2017-08-12T09:01:16.820Z,23.32
2017-08-12T09:02:27.086Z,23.23
2017-08-12T09:03:37.024Z,23.28
2017-08-12T09:04:47.259Z,23.27
2017-08-12T09:05:57.208Z,23.42
2017-08-12T09:07:07.446Z,23.25
2017-08-12T09:08:17.403Z,23.32
2017-08-12T09:09:27.673Z,23.39
2017-08-12T09:10:36.996Z,23.39
2017-08-12T09:11:46.909Z,23.4
2017-08-12T09:12:57.165Z,23.27
2017-08-12T09:14:07.395Z,23.4
2017-08-12T09:15:17.018Z,23.25
2017-08-12T09:16:26.946Z,23.28
2017-08-12T09:17:37.209Z,23.27
2017-08-12T09:18:47.141Z,23.27
2017-08-12T09:19:57.371Z,23.4
2017-08-12T09:21:07.308Z,23.38
2017-08-12T09:22:17.227Z,23.27
2017-08-12T09:23:26.868Z,23.25
2017-08-12T09:24:36.495Z,23.42
2017-08-12T09:25:46.419Z,23.39
2017-08-12T09:26:56.037Z,23.39
2017-08-12T09:28:05.672Z,23.39
2017-08-12T09:29:17.191Z,23.39
2017-08-12T09:30:28.279Z,23.4
2017-08-12T09:31:37.893Z,23.32
2017-08-12T09:32:47.522Z,23.25
2017-08-12T09:33:57.144Z,23.07
2017-08-12T09:35:06.442Z,22.95
2017-08-12T09:36:16.678Z,22.82
2017-08-12T09:37:26.616Z,22.64
2017-08-12T09:38:36.535Z,22.58
2017-08-12T09:39:46.461Z,22.4
2017-08-12T09:40:55.806Z,22.25
2017-08-12T09:42:05.728Z,22.18
2017-08-12T09:43:15.035Z,21.99
2017-08-12T09:44:24.346Z,21.9
2017-08-12T09:45:33.956Z,21.79
2017-08-12T09:46:44.215Z,21.77
2017-08-12T09:47:54.186Z,21.64
2017-08-12T09:49:04.427Z,21.64
2017-08-12T09:50:14.370Z,21.59
2017-08-12T09:51:24.604Z,21.53
2017-08-12T09:52:34.248Z,21.42
2017-08-12T09:53:44.167Z,21.35
2017-08-12T09:54:53.794Z,21.29
2017-08-12T09:56:03.715Z,21.29
2017-08-12T09:57:13.684Z,21.27
2017-08-12T09:58:23.138Z,21.27
2017-08-12T09:59:33.067Z,21.24
2017-08-12T10:00:42.697Z,21.13
2017-08-12T10:01:52.612Z,21.17
2017-08-12T10:03:02.538Z,21.16
2017-08-12T10:04:12.473Z,21.03
2017-08-12T10:05:22.404Z,20.97
2017-08-12T10:06:32.644Z,20.99
2017-08-12T10:07:42.317Z,20.97
2017-08-12T10:08:52.709Z,20.99
2017-08-12T10:10:02.946Z,20.95
2017-08-12T10:11:12.896Z,20.95
2017-08-12T10:12:22.833Z,20.82
2017-08-12T10:13:32.166Z,20.85
2017-08-12T10:14:41.800Z,20.82
2017-08-12T10:15:51.144Z,20.85
2017-08-12T10:17:01.375Z,20.88
2017-08-12T10:18:10.700Z,20.8
2017-08-12T10:19:20.619Z,20.84
2017-08-12T10:20:30.849Z,20.88
2017-08-12T10:21:41.076Z,20.87
2017-08-12T10:22:51.005Z,20.84
2017-08-12T10:24:00.608Z,20.88
2017-08-12T10:25:10.221Z,20.88
2017-08-12T10:26:19.834Z,20.85
2017-08-12T10:27:29.766Z,20.77
2017-08-12T10:28:39.692Z,20.84
2017-08-12T10:29:49.603Z,20.77
2017-08-12T10:30:59.838Z,20.79
2017-08-12T10:32:10.077Z,20.73
2017-08-12T10:33:19.448Z,20.87
2017-08-12T10:34:29.627Z,20.84
2017-08-12T10:35:39.555Z,20.82
2017-08-12T10:36:49.514Z,20.82
2017-08-12T10:37:59.428Z,20.82
2017-08-12T10:39:08.428Z,20.77
2017-08-12T10:40:18.044Z,20.77
2017-08-12T10:41:27.357Z,20.82
2017-08-12T10:42:36.970Z,20.79
2017-08-12T10:43:47.210Z,20.77
2017-08-12T10:44:57.448Z,20.77
2017-08-12T10:46:07.373Z,20.82
2017-08-12T10:47:17.302Z,20.73
2017-08-12T10:48:26.920Z,20.69
2017-08-12T10:49:36.865Z,20.77
2017-08-12T10:50:46.799Z,20.72
2017-08-12T10:51:56.431Z,20.73
2017-08-12T10:53:06.372Z,20.72
2017-08-12T10:54:16.606Z,20.72
2017-08-12T10:55:26.349Z,20.69
2017-08-12T10:56:36.281Z,20.79
2017-08-12T10:57:46.524Z,20.74
2017-08-12T10:58:56.785Z,20.69
2017-08-12T11:00:06.445Z,20.72
2017-08-12T11:01:16.099Z,20.69
2017-08-12T11:02:25.725Z,20.72
2017-08-12T11:03:35.398Z,20.64
2017-08-12T11:04:45.020Z,20.67
2017-08-12T11:05:55.256Z,20.73
2017-08-12T11:07:05.490Z,20.8
2017-08-12T11:08:15.104Z,20.69
2017-08-12T11:09:25.045Z,20.77
2017-08-12T11:10:34.974Z,20.7
2017-08-12T11:11:45.202Z,20.77
2017-08-12T11:12:55.432Z,20.72
2017-08-12T11:14:05.354Z,20.72
2017-08-12T11:15:14.664Z,20.77
2017-08-12T11:16:24.312Z,20.77
2017-08-12T11:17:34.238Z,20.76
2017-08-12T11:18:44.160Z,20.74
2017-08-12T11:19:54.085Z,20.7
2017-08-12T11:21:04.347Z,20.7
2017-08-12T11:22:14.575Z,20.77
2017-08-12T11:23:24.186Z,20.79
2017-08-12T11:24:34.113Z,20.76
2017-08-12T11:25:44.338Z,20.77
2017-08-12T11:26:54.252Z,20.76
2017-08-12T11:28:04.204Z,20.79
2017-08-12T11:29:14.123Z,20.84
2017-08-12T11:30:24.063Z,20.82
2017-08-12T11:31:34.421Z,20.74
2017-08-12T11:32:44.685Z,20.77
2017-08-12T11:33:54.933Z,20.82
2017-08-12T11:35:04.917Z,20.85
2017-08-12T11:36:15.150Z,20.88
2017-08-12T11:37:25.068Z,20.84
2017-08-12T11:38:34.678Z,20.76
2017-08-12T11:39:44.603Z,20.79
2017-08-12T11:40:54.838Z,20.77
2017-08-12T11:42:04.499Z,20.77
2017-08-12T11:43:14.417Z,20.88
2017-08-12T11:44:24.638Z,20.85
2017-08-12T11:45:34.583Z,20.91
2017-08-12T11:46:44.538Z,20.85
2017-08-12T11:47:54.464Z,20.84
2017-08-12T11:49:04.698Z,20.87
2017-08-12T11:50:14.953Z,20.89
2017-08-12T11:51:24.884Z,20.87
2017-08-12T11:52:34.837Z,20.91
2017-08-12T11:53:45.055Z,20.82
2017-08-12T11:54:54.974Z,20.88
2017-08-12T11:56:05.221Z,20.85
2017-08-12T11:57:15.176Z,20.88
2017-08-12T11:58:25.117Z,20.87
2017-08-12T11:59:35.358Z,20.89
2017-08-12T12:00:58.897Z,20.82
2017-08-12T12:02:08.954Z,20.85
2017-08-12T12:03:18.924Z,20.82
2017-08-12T12:04:28.893Z,20.88
2017-08-12T12:05:38.549Z,20.91
2017-08-12T12:06:48.545Z,20.89
2017-08-12T12:07:58.178Z,20.94
2017-08-12T12:09:08.454Z,20.95
2017-08-12T12:10:18.714Z,20.97
2017-08-12T12:11:28.647Z,20.95
2017-08-12T12:12:37.657Z,20.92
2017-08-12T12:13:47.900Z,20.95
2017-08-12T12:14:57.843Z,20.99
2017-08-12T12:16:07.468Z,20.99
2017-08-12T12:17:17.702Z,20.99
2017-08-12T12:18:27.371Z,21.01
2017-08-12T12:19:37.629Z,20.97
2017-08-12T12:20:47.625Z,21.01
2017-08-12T12:21:57.859Z,21.01
2017-08-12T12:23:07.811Z,20.99
2017-08-12T12:24:18.046Z,20.98
2017-08-12T12:25:27.973Z,21.01
2017-08-12T12:26:37.898Z,21.07
2017-08-12T12:27:47.539Z,21.06
2017-08-12T12:28:57.468Z,21.07
2017-08-12T12:30:07.091Z,21.06
2017-08-12T12:31:16.708Z,21.04
2017-08-12T12:32:26.937Z,21.14
2017-08-12T12:33:36.862Z,21.12
2017-08-12T12:34:46.785Z,21.13
2017-08-12T12:35:56.084Z,21.13
2017-08-12T12:37:06.012Z,21.12
2017-08-12T12:38:15.960Z,21.16
2017-08-12T12:39:25.564Z,21.17
2017-08-12T12:40:35.499Z,21.14
2017-08-12T12:41:45.486Z,21.27
2017-08-12T12:42:55.428Z,21.24
2017-08-12T12:44:05.353Z,21.17
2017-08-12T12:45:15.406Z,21.22
2017-08-12T12:46:25.358Z,21.28
2017-08-12T12:47:35.685Z,21.27
2017-08-12T12:48:46.004Z,21.24
2017-08-12T12:49:55.652Z,21.27
2017-08-12T12:51:05.665Z,21.24
2017-08-12T12:52:15.647Z,21.28
2017-08-12T12:53:25.897Z,21.24
2017-08-12T12:54:35.819Z,21.25
2017-08-12T12:55:45.835Z,21.29
2017-08-12T12:56:56.108Z,21.31
2017-08-12T12:58:05.792Z,21.27
2017-08-12T12:59:15.787Z,21.29
2017-08-12T13:00:25.765Z,21.28
2017-08-12T13:01:35.688Z,21.4
2017-08-12T13:02:45.310Z,21.4
2017-08-12T13:03:54.940Z,21.35
2017-08-12T13:05:05.231Z,21.37
2017-08-12T13:06:15.495Z,21.43
2017-08-12T13:07:25.141Z,21.43
2017-08-12T13:08:34.745Z,21.42
2017-08-12T13:09:44.666Z,21.47
2017-08-12T13:10:54.584Z,21.49
2017-08-12T13:12:04.536Z,21.52
2017-08-12T13:13:14.141Z,21.47
2017-08-12T13:14:24.093Z,21.59
2017-08-12T13:15:33.398Z,21.59
2017-08-12T13:16:42.714Z,21.58
2017-08-12T13:17:53.008Z,21.62
2017-08-12T13:19:03.281Z,21.59
2017-08-12T13:20:12.937Z,21.62
2017-08-12T13:21:22.865Z,21.61
2017-08-12T13:22:32.838Z,21.65
2017-08-12T13:23:42.168Z,21.71
2017-08-12T13:24:52.483Z,21.74
2017-08-12T13:26:02.445Z,21.75
2017-08-12T13:27:12.380Z,21.74
2017-08-12T13:28:22.629Z,21.86
2017-08-12T13:29:32.872Z,21.86
2017-08-12T13:30:42.856Z,21.9
2017-08-12T13:31:53.102Z,21.99
2017-08-12T13:33:03.035Z,21.96
2017-08-12T13:34:12.681Z,21.91
2017-08-12T13:35:22.677Z,21.96
2017-08-12T13:36:32.947Z,21.86
2017-08-12T13:37:43.195Z,21.86
2017-08-12T13:38:53.466Z,21.96
2017-08-12T13:40:03.396Z,21.98
2017-08-12T13:41:13.323Z,22.06
2017-08-12T13:42:23.295Z,21.94
2017-08-12T13:43:33.559Z,22
2017-08-12T13:44:43.512Z,21.94
2017-08-12T13:45:53.473Z,22.07
2017-08-12T13:47:03.735Z,22
2017-08-12T13:48:13.359Z,22.07
2017-08-12T13:49:23.619Z,22.06
2017-08-12T13:50:33.851Z,22.02
2017-08-12T13:51:43.471Z,22.1
2017-08-12T13:52:53.436Z,22.03
2017-08-12T13:54:03.359Z,22.15
2017-08-12T13:55:12.375Z,22.14
2017-08-12T13:56:22.022Z,22.25
2017-08-12T13:57:31.660Z,22.25
2017-08-12T13:58:41.275Z,22.18
2017-08-12T13:59:51.508Z,22.17
2017-08-12T14:01:00.524Z,22.25
2017-08-12T14:02:10.140Z,22.27
2017-08-12T14:03:20.062Z,22.28
2017-08-12T14:04:29.704Z,22.27
2017-08-12T14:05:39.934Z,22.33
2017-08-12T14:06:50.160Z,22.33
2017-08-12T14:08:00.100Z,22.33
2017-08-12T14:09:10.061Z,22.4
2017-08-12T14:10:20.322Z,22.43
2017-08-12T14:11:30.568Z,22.46
2017-08-12T14:12:40.180Z,22.43
2017-08-12T14:13:50.406Z,22.46
2017-08-12T14:15:00.325Z,22.57
2017-08-12T14:16:10.551Z,22.57
2017-08-12T14:17:20.485Z,22.58
2017-08-12T14:18:30.722Z,22.61
2017-08-12T14:19:40.944Z,22.64
2017-08-12T14:20:50.890Z,22.57
2017-08-12T14:22:00.524Z,22.61
2017-08-12T14:23:10.760Z,22.52
2017-08-12T14:24:20.705Z,22.52
2017-08-12T14:25:30.312Z,22.54
2017-08-12T14:26:40.233Z,22.39
2017-08-12T14:27:50.166Z,22.55
2017-08-12T14:29:00.434Z,22.47
2017-08-12T14:30:09.747Z,22.54
2017-08-12T14:31:19.700Z,22.58
2017-08-12T14:32:29.376Z,22.52
2017-08-12T14:33:39.357Z,22.52
2017-08-12T14:34:50.149Z,22.6
2017-08-12T14:36:01.566Z,22.54
2017-08-12T14:37:12.051Z,22.52
2017-08-12T14:38:21.975Z,22.62
2017-08-12T14:39:31.609Z,22.49
2017-08-12T14:40:41.851Z,22.61
2017-08-12T14:41:51.485Z,22.49
2017-08-12T14:43:01.790Z,22.57
2017-08-12T14:44:11.112Z,22.54
2017-08-12T14:45:20.738Z,22.64
2017-08-12T14:46:31.044Z,22.58
2017-08-12T14:47:40.675Z,22.61
2017-08-12T14:48:50.910Z,22.46
2017-08-12T14:50:00.545Z,22.51
2017-08-12T14:51:10.234Z,22.57
2017-08-12T14:52:20.467Z,22.54
2017-08-12T14:53:30.400Z,22.61
2017-08-12T14:54:40.666Z,22.57
2017-08-12T14:55:50.282Z,22.6
2017-08-12T14:57:00.235Z,22.61
2017-08-12T14:58:09.921Z,22.58
2017-08-12T14:59:19.841Z,22.58
2017-08-12T15:00:29.787Z,22.55
2017-08-12T15:01:39.434Z,22.58
2017-08-12T15:02:49.673Z,22.58
2017-08-12T15:03:59.605Z,22.6